createdAt,value
2022-07-25T00:00:14.023Z,29.24
2022-07-25T00:02:44.285Z,28.81
2022-07-25T00:05:12.961Z,27.31
2022-07-25T00:07:40.849Z,29.18
2022-07-25T00:10:09.842Z,29.11
2022-07-25T00:12:37.866Z,29.09
2022-07-25T00:15:06.778Z,29.07
2022-07-25T00:17:36.081Z,29.05
2022-07-25T00:20:04.581Z,28.85
2022-07-25T00:22:35.648Z,27.38
2022-07-25T00:25:03.695Z,28.80
2022-07-25T00:27:31.788Z,28.85
2022-07-25T00:29:59.851Z,28.89
2022-07-25T00:32:27.810Z,28.90
2022-07-25T00:34:57.109Z,28.86
2022-07-25T00:37:25.143Z,28.84
2022-07-25T00:39:53.182Z,28.82
2022-07-25T00:42:21.836Z,28.78
2022-07-25T00:44:50.356Z,28.73
2022-07-25T00:47:18.784Z,28.36
2022-07-25T00:49:47.018Z,28.68
2022-07-25T00:52:17.199Z,28.68
2022-07-25T00:54:45.278Z,27.76
2022-07-25T00:57:13.287Z,28.63
2022-07-25T00:59:41.301Z,28.26
2022-07-25T01:02:09.422Z,28.58
2022-07-25T01:04:37.589Z,27.71
2022-07-25T01:07:05.679Z,27.21
2022-07-25T01:09:35.255Z,28.31
2022-07-25T01:12:03.556Z,28.49
2022-07-25T01:14:31.662Z,27.87
2022-07-25T01:16:59.651Z,28.40
2022-07-25T01:19:27.813Z,27.29
2022-07-25T01:21:57.201Z,28.35
2022-07-25T01:24:25.228Z,28.29
2022-07-25T01:26:53.915Z,27.02
2022-07-25T01:29:21.867Z,28.27
2022-07-25T01:31:49.879Z,26.87
2022-07-25T01:34:17.927Z,27.84
2022-07-25T01:36:45.822Z,27.42
2022-07-25T01:39:23.125Z,28.18
2022-07-25T01:41:51.063Z,28.12
2022-07-25T01:44:19.322Z,28.08
2022-07-25T01:46:47.550Z,28.04
2022-07-25T01:49:15.673Z,28.03
2022-07-25T01:51:43.639Z,28.01
2022-07-25T01:54:11.693Z,27.97
2022-07-25T01:56:48.275Z,27.68
2022-07-25T01:59:16.865Z,27.90
2022-07-25T02:01:59.954Z,27.90
2022-07-25T02:04:28.042Z,26.45
2022-07-25T02:06:56.289Z,27.26
2022-07-25T02:09:24.159Z,27.78
2022-07-25T02:11:53.535Z,27.54
2022-07-25T02:14:21.570Z,27.73
2022-07-25T02:16:49.802Z,27.69
2022-07-25T02:19:18.018Z,27.54
2022-07-25T02:21:46.106Z,27.67
2022-07-25T02:24:14.038Z,27.67
2022-07-25T02:26:43.045Z,27.66
2022-07-25T02:29:12.642Z,27.64
2022-07-25T02:31:40.625Z,27.65
2022-07-25T02:44:59.893Z,24.76
2022-07-25T02:52:03.700Z,25.19
2022-07-25T02:55:10.379Z,25.93
2022-07-25T03:01:40.255Z,26.88
2022-07-25T03:04:39.779Z,25.00
2022-07-25T03:07:07.832Z,25.79
2022-07-25T03:09:35.974Z,27.43
2022-07-25T03:12:06.091Z,26.84
2022-07-25T03:14:34.491Z,26.13
2022-07-25T03:17:02.455Z,26.40
2022-07-25T03:19:30.608Z,26.09
2022-07-25T03:21:58.654Z,27.32
2022-07-25T03:24:26.769Z,26.99
2022-07-25T03:26:55.162Z,27.41
2022-07-25T03:29:24.948Z,27.43
2022-07-25T03:31:53.229Z,26.27
2022-07-25T03:34:21.576Z,27.47
2022-07-25T03:36:49.666Z,26.91
2022-07-25T03:39:18.377Z,26.79
2022-07-25T03:41:46.654Z,26.36
2022-07-25T03:44:14.583Z,25.73
2022-07-25T03:46:44.153Z,27.51
2022-07-25T03:49:12.373Z,26.81
2022-07-25T03:51:41.793Z,27.03
2022-07-25T03:54:13.647Z,27.28
2022-07-25T03:56:50.465Z,25.76
2022-07-25T03:59:21.794Z,25.02
2022-07-25T04:01:51.925Z,27.27
2022-07-25T04:04:20.597Z,25.63
2022-07-25T04:06:48.748Z,27.57
2022-07-25T04:09:17.159Z,27.68
2022-07-25T04:11:45.432Z,27.27
2022-07-25T04:14:13.598Z,26.54
2022-07-25T04:16:41.740Z,26.89
2022-07-25T04:19:11.361Z,27.65
2022-07-25T04:21:39.747Z,26.59
2022-07-25T04:24:08.620Z,27.73
2022-07-25T04:26:37.443Z,27.54
2022-07-25T04:29:05.419Z,26.58
2022-07-25T04:31:33.790Z,27.87
2022-07-25T04:34:40.547Z,27.91
2022-07-25T04:37:14.673Z,27.89
2022-07-25T04:39:42.957Z,27.20
2022-07-25T04:42:11.010Z,27.69
2022-07-25T04:44:39.166Z,27.28
2022-07-25T04:47:07.532Z,27.72
2022-07-25T04:49:37.208Z,26.64
2022-07-25T04:52:05.411Z,27.97
2022-07-25T04:54:47.585Z,28.34
2022-07-25T04:57:15.747Z,27.01
2022-07-25T04:59:59.912Z,28.10
2022-07-25T05:02:27.997Z,27.54
2022-07-25T05:04:57.285Z,28.60
2022-07-25T05:07:25.337Z,27.54
2022-07-25T05:09:59.361Z,27.22
2022-07-25T05:12:27.844Z,28.56
2022-07-25T05:14:56.219Z,28.11
2022-07-25T05:17:24.670Z,29.05
2022-07-25T05:19:52.799Z,28.09
2022-07-25T05:22:25.179Z,27.75
2022-07-25T05:24:59.814Z,29.23
2022-07-25T05:27:30.994Z,27.26
2022-07-25T05:29:58.927Z,29.40
2022-07-25T05:32:27.174Z,27.35
2022-07-25T05:34:55.400Z,28.35
2022-07-25T05:37:24.583Z,29.31
2022-07-25T05:39:52.967Z,29.36
2022-07-25T05:42:21.290Z,29.01
2022-07-25T05:44:51.065Z,29.30
2022-07-25T05:47:19.259Z,28.68
2022-07-25T05:49:47.441Z,29.27
2022-07-25T05:52:15.690Z,29.61
2022-07-25T05:54:45.938Z,28.28
2022-07-25T05:57:13.959Z,29.75
2022-07-25T05:59:42.352Z,29.02
2022-07-25T06:02:12.162Z,28.75
2022-07-25T06:04:41.788Z,29.14
2022-07-25T06:07:09.894Z,29.78
2022-07-25T06:09:58.784Z,29.92
2022-07-25T06:12:26.911Z,29.91
2022-07-25T06:30:18.593Z,30.57
2022-07-25T06:47:23.624Z,29.35
2022-07-25T06:49:54.641Z,31.63
2022-07-25T06:52:35.570Z,31.54
2022-07-25T06:55:09.314Z,30.07
2022-07-25T06:58:04.208Z,31.76
2022-07-25T07:01:48.269Z,31.89
2022-07-25T07:22:34.562Z,33.71
2022-07-25T07:25:03.025Z,33.37
2022-07-25T07:27:31.243Z,33.79
2022-07-25T07:30:02.639Z,33.22
2022-07-25T07:36:15.151Z,36.07
2022-07-25T07:39:02.242Z,35.52
2022-07-25T07:41:30.094Z,35.73
2022-07-25T07:44:02.600Z,36.92
2022-07-25T07:46:31.282Z,36.25
2022-07-25T07:48:59.639Z,37.26
2022-07-25T07:51:58.233Z,37.33
2022-07-25T07:54:45.042Z,37.23
2022-07-25T07:57:15.189Z,36.42
2022-07-25T07:59:43.581Z,35.79
2022-07-25T08:02:12.094Z,35.08
2022-07-25T08:04:40.552Z,35.74
2022-07-25T08:07:08.702Z,37.24
2022-07-25T08:09:38.357Z,37.00
2022-07-25T08:12:10.166Z,37.05
2022-07-25T08:14:38.211Z,39.10
2022-07-25T08:17:08.791Z,39.47
2022-07-25T08:19:40.880Z,39.34
2022-07-25T08:22:09.725Z,39.91
2022-07-25T08:24:39.762Z,40.85
2022-07-25T08:27:07.939Z,40.18
2022-07-25T08:29:36.538Z,40.89
2022-07-25T08:32:04.839Z,40.12
2022-07-25T08:37:16.212Z,39.69
2022-07-25T08:42:35.565Z,39.52
2022-07-25T08:45:30.528Z,40.92
2022-07-25T08:51:27.735Z,38.32
2022-07-25T08:56:51.067Z,38.31
2022-07-25T08:59:19.416Z,38.16
2022-07-25T09:02:00.676Z,36.83
2022-07-25T09:04:50.579Z,38.31
2022-07-25T09:07:42.094Z,37.78
2022-07-25T09:14:15.046Z,37.01
2022-07-25T09:21:19.879Z,39.09
2022-07-25T09:24:10.821Z,40.94
2022-07-25T09:38:59.842Z,45.85
2022-07-25T09:42:27.750Z,44.42
2022-07-25T09:45:48.855Z,45.82
2022-07-25T09:48:25.204Z,45.58
2022-07-25T09:54:45.410Z,44.62
2022-07-25T14:16:30.304Z,36.95
2022-07-25T14:18:58.249Z,37.14
2022-07-25T14:21:26.307Z,36.66
2022-07-25T14:23:55.671Z,37.09
2022-07-25T14:29:46.561Z,35.88
2022-07-25T14:32:16.092Z,36.96
2022-07-25T14:34:44.522Z,36.89
2022-07-25T14:37:13.214Z,36.79
2022-07-25T14:39:41.517Z,35.15
2022-07-25T14:42:26.065Z,36.47
2022-07-25T14:44:54.012Z,35.79
2022-07-25T14:47:23.932Z,36.10
2022-07-25T14:49:55.771Z,34.57
2022-07-25T14:52:24.052Z,35.09
2022-07-25T14:54:52.054Z,34.60
2022-07-25T14:57:20.086Z,35.17
2022-07-25T14:59:48.859Z,34.46
2022-07-25T15:02:18.035Z,35.29
2022-07-25T15:04:47.500Z,34.74
2022-07-25T15:07:16.536Z,34.91
2022-07-25T15:09:45.339Z,34.48
2022-07-25T15:12:16.639Z,34.71
2022-07-25T15:14:45.764Z,34.85
2022-07-25T15:17:13.917Z,34.01
2022-07-25T15:19:44.965Z,34.81
2022-07-25T15:22:15.538Z,33.59
2022-07-25T15:25:17.897Z,33.98
2022-07-25T15:27:35.833Z,34.31
2022-07-25T15:30:10.937Z,34.26
2022-07-25T15:32:40.300Z,34.10
2022-07-25T15:35:09.503Z,33.42
2022-07-25T15:37:39.123Z,34.05
2022-07-25T15:40:08.188Z,32.57
2022-07-25T15:42:36.358Z,31.66
2022-07-25T15:45:33.611Z,33.15
2022-07-25T15:47:56.748Z,31.91
2022-07-25T15:50:50.302Z,30.94
2022-07-25T15:53:27.703Z,31.18
2022-07-25T15:55:55.920Z,33.27
2022-07-25T15:58:24.660Z,33.16
2022-07-25T16:00:52.813Z,32.22
2022-07-25T16:03:22.393Z,31.56
2022-07-25T16:05:50.623Z,32.83
2022-07-25T16:08:20.721Z,32.26
2022-07-25T16:10:50.178Z,31.79
2022-07-25T16:13:18.193Z,32.12
2022-07-25T16:15:46.649Z,31.31
2022-07-25T16:18:15.069Z,30.49
2022-07-25T16:20:43.148Z,32.25
2022-07-25T16:23:11.255Z,30.16
2022-07-25T16:25:46.056Z,30.41
2022-07-25T16:28:17.047Z,32.25
2022-07-25T16:30:45.512Z,32.30
2022-07-25T16:33:13.367Z,31.88
2022-07-25T16:35:41.318Z,31.62
2022-07-25T16:38:09.642Z,32.03
2022-07-25T16:40:37.893Z,32.44
2022-07-25T16:43:07.219Z,32.36
2022-07-25T16:45:38.167Z,32.57
2022-07-25T16:48:12.020Z,32.45
2022-07-25T16:50:42.182Z,32.03
2022-07-25T16:53:10.153Z,32.53
2022-07-25T16:55:38.597Z,32.07
2022-07-25T16:58:08.079Z,32.23
2022-07-25T17:00:36.302Z,32.03
2022-07-25T17:03:04.593Z,32.37
2022-07-25T17:05:37.549Z,31.38
2022-07-25T17:08:09.476Z,31.70
2022-07-25T17:10:39.576Z,31.75
2022-07-25T17:13:08.874Z,30.78
2022-07-25T17:15:37.132Z,31.80
2022-07-25T17:18:05.827Z,31.34
2022-07-25T17:20:33.969Z,30.48
2022-07-25T17:23:02.535Z,31.04
2022-07-25T17:25:31.186Z,28.90
2022-07-25T17:28:01.177Z,29.73
2022-07-25T17:30:30.798Z,31.01
2022-07-25T17:32:59.703Z,29.04
2022-07-25T17:35:27.876Z,29.38
2022-07-25T17:37:56.140Z,30.06
2022-07-25T17:40:24.267Z,30.34
2022-07-25T17:42:52.288Z,30.79
2022-07-25T17:45:20.600Z,30.60
2022-07-25T17:47:51.027Z,29.42
2022-07-25T17:50:20.114Z,29.23
2022-07-25T17:52:48.451Z,30.68
2022-07-25T17:55:19.680Z,28.92
2022-07-25T17:57:53.937Z,29.78
2022-07-25T18:00:23.643Z,28.49
2022-07-25T18:02:54.100Z,30.48
2022-07-25T18:05:22.086Z,30.48
2022-07-25T18:07:50.709Z,30.46
2022-07-25T18:10:18.888Z,30.00
2022-07-25T18:12:47.074Z,30.41
2022-07-25T18:15:15.570Z,30.41
2022-07-25T18:17:44.508Z,30.41
2022-07-25T18:20:15.470Z,30.17
2022-07-25T18:22:43.740Z,30.17
2022-07-25T18:25:12.749Z,30.31
2022-07-25T18:27:41.377Z,30.14
2022-07-25T18:30:10.750Z,29.84
2022-07-25T18:32:38.720Z,30.04
2022-07-25T18:35:07.893Z,30.16
2022-07-25T18:37:37.688Z,29.84
2022-07-25T18:40:06.968Z,30.19
2022-07-25T18:42:35.969Z,30.16
2022-07-25T18:45:04.139Z,30.12
2022-07-25T18:47:34.904Z,30.06
2022-07-25T18:50:02.967Z,29.49
2022-07-25T18:52:34.934Z,29.86
2022-07-25T18:55:04.572Z,29.57
2022-07-25T18:57:32.625Z,29.76
2022-07-25T19:00:03.219Z,29.42
2022-07-25T19:02:31.802Z,29.64
2022-07-25T19:04:59.867Z,29.59
2022-07-25T19:07:29.852Z,29.50
2022-07-25T19:09:57.852Z,29.01
2022-07-25T19:12:28.497Z,29.34
2022-07-25T19:14:56.923Z,29.16
2022-07-25T19:17:25.079Z,28.06
2022-07-25T19:19:53.427Z,29.04
2022-07-25T19:22:21.344Z,28.96
2022-07-25T19:24:49.242Z,28.84
2022-07-25T19:27:18.214Z,28.76
2022-07-25T19:29:47.554Z,28.35
2022-07-25T19:32:17.930Z,28.59
2022-07-25T19:34:48.303Z,28.30
2022-07-25T19:37:16.471Z,28.44
2022-07-25T19:39:47.549Z,28.36
2022-07-25T19:42:15.453Z,27.78
2022-07-25T19:44:43.529Z,28.25
2022-07-25T19:47:12.925Z,27.06
2022-07-25T19:49:41.137Z,27.64
2022-07-25T19:52:09.243Z,28.02
2022-07-25T19:54:37.403Z,27.97
2022-07-25T19:57:05.558Z,27.64
2022-07-25T19:59:34.634Z,27.83
2022-07-25T20:02:02.761Z,27.79
2022-07-25T20:04:34.518Z,27.17
2022-07-25T20:07:03.146Z,27.72
2022-07-25T20:09:31.420Z,26.31
2022-07-25T20:11:59.493Z,27.69
2022-07-25T20:14:27.490Z,27.68
2022-07-25T20:16:57.836Z,27.65
2022-07-25T20:19:26.148Z,27.63
2022-07-25T20:21:55.581Z,27.59
2022-07-25T20:24:23.524Z,26.96
2022-07-25T20:26:51.662Z,27.10
2022-07-25T20:29:19.628Z,26.82
2022-07-25T20:31:47.728Z,26.38
2022-07-25T20:34:16.668Z,26.22
2022-07-25T20:36:47.553Z,26.87
2022-07-25T20:44:28.470Z,25.78
2022-07-25T20:47:38.722Z,24.05
2022-07-25T20:50:14.613Z,25.88
2022-07-25T20:52:46.079Z,25.99
2022-07-25T20:55:44.272Z,27.25
2022-07-25T20:58:44.291Z,24.24
2022-07-25T21:04:35.039Z,27.29
2022-07-25T21:07:23.477Z,26.71
2022-07-25T21:13:32.983Z,26.34
2022-07-25T21:16:04.448Z,25.12
2022-07-25T21:18:32.770Z,24.46
2022-07-25T21:21:08.982Z,26.03
2022-07-25T22:04:12.370Z,27.08
2022-07-25T22:06:40.715Z,26.68
2022-07-25T22:09:09.477Z,25.91
2022-07-25T22:11:42.817Z,25.41
2022-07-25T22:14:14.668Z,26.99
2022-07-25T22:16:43.072Z,25.19
2022-07-25T22:19:27.989Z,24.77
2022-07-25T22:22:04.141Z,26.24
2022-07-25T22:24:32.563Z,24.27
2022-07-25T22:27:07.411Z,26.07
2022-07-25T22:29:40.144Z,26.37
2022-07-25T22:32:12.083Z,26.52
2022-07-25T22:34:46.087Z,26.33
2022-07-25T22:37:17.269Z,26.90
2022-07-25T22:39:47.810Z,25.73
2022-07-25T22:42:16.406Z,26.87
2022-07-25T22:44:44.759Z,26.84
2022-07-25T22:47:12.802Z,25.76
2022-07-25T22:49:42.631Z,26.29
2022-07-25T22:52:10.690Z,25.68
2022-07-25T22:54:39.124Z,25.20
2022-07-25T22:57:07.573Z,24.88
2022-07-25T22:59:36.858Z,24.51
2022-07-25T23:02:05.141Z,24.99
2022-07-25T23:04:34.441Z,25.73
2022-07-25T23:07:04.064Z,26.35
2022-07-25T23:09:34.751Z,26.04
2022-07-25T23:12:05.012Z,25.31
2022-07-25T23:14:33.507Z,23.69
2022-07-25T23:17:15.694Z,25.94
2022-07-25T23:19:43.892Z,25.21
2022-07-25T23:22:14.606Z,24.61
2022-07-25T23:24:42.814Z,25.71
2022-07-25T23:27:11.353Z,25.48
2022-07-25T23:29:39.549Z,25.79
2022-07-25T23:32:08.660Z,24.15
2022-07-25T23:34:37.268Z,24.46
2022-07-25T23:37:33.720Z,26.29
2022-07-25T23:40:02.069Z,25.56
2022-07-25T23:42:40.822Z,24.88
2022-07-25T23:45:13.585Z,23.19
2022-07-25T23:47:42.734Z,25.06
2022-07-25T23:50:15.612Z,25.50
2022-07-25T23:53:03.827Z,25.47
2022-07-25T23:55:32.248Z,23.82
2022-07-25T23:58:01.708Z,25.45
